sensor_id;sensor_type;location;lat;lon;timestamp;P1;durP1;ratioP1;P2;durP2;ratioP2
3704;SDS011;1868;48.918;9.438;2023-09-12T00:01:36;11.63;;;7.10;;
3704;SDS011;1868;48.918;9.438;2023-09-12T00:04:05;11.27;;;7.60;;
3704;SDS011;1868;48.918;9.438;2023-09-12T00:06:34;13.57;;;7.00;;
3704;SDS011;1868;48.918;9.438;2023-09-12T00:09:06;11.53;;;6.80;;
3704;SDS011;1868;48.918;9.438;2023-09-12T00:11:37;12.23;;;7.73;;
3704;SDS011;1868;48.918;9.438;2023-09-12T00:14:05;12.20;;;6.50;;
3704;SDS011;1868;48.918;9.438;2023-09-12T00:16:37;17.17;;;7.00;;
3704;SDS011;1868;48.918;9.438;2023-09-12T00:19:06;13.17;;;7.00;;
3704;SDS011;1868;48.918;9.438;2023-09-12T00:21:35;9.90;;;7.33;;
3704;SDS011;1868;48.918;9.438;2023-09-12T00:24:07;11.83;;;6.70;;
3704;SDS011;1868;48.918;9.438;2023-09-12T00:26:43;10.20;;;6.13;;
3704;SDS011;1868;48.918;9.438;2023-09-12T00:29:12;8.23;;;5.80;;
3704;SDS011;1868;48.918;9.438;2023-09-12T00:31:42;14.57;;;7.20;;
3704;SDS011;1868;48.918;9.438;2023-09-12T00:34:15;9.27;;;6.50;;
3704;SDS011;1868;48.918;9.438;2023-09-12T00:36:44;12.63;;;7.13;;
3704;SDS011;1868;48.918;9.438;2023-09-12T00:39:15;8.67;;;5.63;;
3704;SDS011;1868;48.918;9.438;2023-09-12T00:41:43;9.70;;;6.60;;
3704;SDS011;1868;48.918;9.438;2023-09-12T00:44:12;13.67;;;6.40;;
3704;SDS011;1868;48.918;9.438;2023-09-12T00:46:46;11.47;;;7.50;;
3704;SDS011;1868;48.918;9.438;2023-09-12T00:49:18;10.03;;;7.20;;
3704;SDS011;1868;48.918;9.438;2023-09-12T00:51:49;12.03;;;6.90;;
3704;SDS011;1868;48.918;9.438;2023-09-12T00:54:21;9.53;;;6.03;;
3704;SDS011;1868;48.918;9.438;2023-09-12T00:56:49;11.13;;;5.77;;
3704;SDS011;1868;48.918;9.438;2023-09-12T00:59:19;14.13;;;6.73;;
3704;SDS011;1868;48.918;9.438;2023-09-12T01:01:48;8.27;;;7.07;;
3704;SDS011;1868;48.918;9.438;2023-09-12T01:04:18;10.33;;;6.40;;
3704;SDS011;1868;48.918;9.438;2023-09-12T01:07:00;15.10;;;6.70;;
3704;SDS011;1868;48.918;9.438;2023-09-12T01:09:33;11.67;;;7.10;;
3704;SDS011;1868;48.918;9.438;2023-09-12T01:12:02;11.77;;;7.30;;
3704;SDS011;1868;48.918;9.438;2023-09-12T01:14:33;12.97;;;7.63;;
3704;SDS011;1868;48.918;9.438;2023-09-12T01:17:05;11.67;;;7.00;;
3704;SDS011;1868;48.918;9.438;2023-09-12T01:19:34;11.50;;;7.20;;
3704;SDS011;1868;48.918;9.438;2023-09-12T01:22:09;7.70;;;6.20;;
3704;SDS011;1868;48.918;9.438;2023-09-12T01:28:31;10.73;;;6.80;;
3704;SDS011;1868;48.918;9.438;2023-09-12T01:31:03;8.57;;;6.93;;
3704;SDS011;1868;48.918;9.438;2023-09-12T01:33:32;10.73;;;5.97;;
3704;SDS011;1868;48.918;9.438;2023-09-12T01:36:01;14.93;;;6.40;;
3704;SDS011;1868;48.918;9.438;2023-09-12T01:38:30;10.77;;;6.47;;
3704;SDS011;1868;48.918;9.438;2023-09-12T01:40:58;9.93;;;5.97;;
3704;SDS011;1868;48.918;9.438;2023-09-12T01:43:28;13.00;;;7.20;;
3704;SDS011;1868;48.918;9.438;2023-09-12T01:46:00;13.13;;;7.43;;
3704;SDS011;1868;48.918;9.438;2023-09-12T01:48:31;9.30;;;6.77;;
3704;SDS011;1868;48.918;9.438;2023-09-12T01:51:02;21.00;;;9.00;;
3704;SDS011;1868;48.918;9.438;2023-09-12T01:53:32;16.33;;;7.63;;
3704;SDS011;1868;48.918;9.438;2023-09-12T01:56:03;15.13;;;7.50;;
3704;SDS011;1868;48.918;9.438;2023-09-12T01:58:34;11.73;;;6.83;;
3704;SDS011;1868;48.918;9.438;2023-09-12T02:01:04;10.60;;;7.50;;
3704;SDS011;1868;48.918;9.438;2023-09-12T02:03:35;12.77;;;6.70;;
3704;SDS011;1868;48.918;9.438;2023-09-12T02:06:08;14.37;;;7.00;;
3704;SDS011;1868;48.918;9.438;2023-09-12T02:08:38;7.40;;;6.50;;
3704;SDS011;1868;48.918;9.438;2023-09-12T02:11:08;18.70;;;8.53;;
3704;SDS011;1868;48.918;9.438;2023-09-12T02:13:39;11.23;;;6.57;;
3704;SDS011;1868;48.918;9.438;2023-09-12T02:16:13;13.97;;;6.80;;
3704;SDS011;1868;48.918;9.438;2023-09-12T02:18:42;9.33;;;6.00;;
3704;SDS011;1868;48.918;9.438;2023-09-12T02:21:11;10.60;;;6.87;;
3704;SDS011;1868;48.918;9.438;2023-09-12T02:23:42;15.20;;;6.87;;
3704;SDS011;1868;48.918;9.438;2023-09-12T02:26:14;12.20;;;6.13;;
3704;SDS011;1868;48.918;9.438;2023-09-12T02:28:46;10.03;;;6.73;;
3704;SDS011;1868;48.918;9.438;2023-09-12T02:31:15;11.57;;;6.70;;
3704;SDS011;1868;48.918;9.438;2023-09-12T02:33:44;10.43;;;7.20;;
3704;SDS011;1868;48.918;9.438;2023-09-12T02:36:15;10.30;;;6.90;;
3704;SDS011;1868;48.918;9.438;2023-09-12T02:38:47;9.37;;;6.20;;
3704;SDS011;1868;48.918;9.438;2023-09-12T02:41:15;7.47;;;5.93;;
3704;SDS011;1868;48.918;9.438;2023-09-12T02:43:47;7.27;;;5.70;;
3704;SDS011;1868;48.918;9.438;2023-09-12T02:46:17;7.30;;;5.33;;
3704;SDS011;1868;48.918;9.438;2023-09-12T02:48:48;8.17;;;6.00;;
3704;SDS011;1868;48.918;9.438;2023-09-12T02:51:17;8.07;;;5.33;;
3704;SDS011;1868;48.918;9.438;2023-09-12T02:53:45;9.00;;;5.70;;
3704;SDS011;1868;48.918;9.438;2023-09-12T02:56:13;12.37;;;6.30;;
3704;SDS011;1868;48.918;9.438;2023-09-12T02:58:45;10.07;;;6.40;;
3704;SDS011;1868;48.918;9.438;2023-09-12T03:01:15;9.80;;;7.10;;
3704;SDS011;1868;48.918;9.438;2023-09-12T03:03:48;11.30;;;6.67;;
3704;SDS011;1868;48.918;9.438;2023-09-12T03:06:18;12.30;;;6.40;;
3704;SDS011;1868;48.918;9.438;2023-09-12T03:08:47;11.60;;;7.10;;
3704;SDS011;1868;48.918;9.438;2023-09-12T03:11:17;10.77;;;6.30;;
3704;SDS011;1868;48.918;9.438;2023-09-12T03:13:49;11.23;;;6.87;;
3704;SDS011;1868;48.918;9.438;2023-09-12T03:16:18;16.50;;;6.50;;
3704;SDS011;1868;48.918;9.438;2023-09-12T03:18:49;10.03;;;6.00;;
3704;SDS011;1868;48.918;9.438;2023-09-12T03:21:18;10.33;;;6.63;;
3704;SDS011;1868;48.918;9.438;2023-09-12T03:23:47;11.37;;;6.10;;
3704;SDS011;1868;48.918;9.438;2023-09-12T03:26:16;8.43;;;6.27;;
3704;SDS011;1868;48.918;9.438;2023-09-12T03:28:49;15.07;;;6.47;;
3704;SDS011;1868;48.918;9.438;2023-09-12T03:31:19;10.80;;;7.13;;
3704;SDS011;1868;48.918;9.438;2023-09-12T03:33:49;12.40;;;6.87;;
3704;SDS011;1868;48.918;9.438;2023-09-12T03:36:18;13.10;;;7.07;;
3704;SDS011;1868;48.918;9.438;2023-09-12T03:38:47;12.63;;;6.20;;
3704;SDS011;1868;48.918;9.438;2023-09-12T03:41:16;12.60;;;6.20;;
3704;SDS011;1868;48.918;9.438;2023-09-12T03:43:45;7.77;;;5.93;;
3704;SDS011;1868;48.918;9.438;2023-09-12T03:46:18;12.67;;;6.80;;
3704;SDS011;1868;48.918;9.438;2023-09-12T03:48:49;10.20;;;6.30;;
3704;SDS011;1868;48.918;9.438;2023-09-12T03:51:18;7.13;;;5.90;;
3704;SDS011;1868;48.918;9.438;2023-09-12T03:53:48;8.30;;;6.00;;
3704;SDS011;1868;48.918;9.438;2023-09-12T03:56:16;9.63;;;5.63;;
3704;SDS011;1868;48.918;9.438;2023-09-12T03:58:46;7.63;;;6.37;;
3704;SDS011;1868;48.918;9.438;2023-09-12T04:01:16;8.97;;;6.43;;
3704;SDS011;1868;48.918;9.438;2023-09-12T04:03:47;8.70;;;5.90;;
3704;SDS011;1868;48.918;9.438;2023-09-12T04:06:15;10.83;;;6.40;;
3704;SDS011;1868;48.918;9.438;2023-09-12T04:08:45;7.27;;;5.83;;
3704;SDS011;1868;48.918;9.438;2023-09-12T04:11:16;10.50;;;7.10;;
3704;SDS011;1868;48.918;9.438;2023-09-12T04:13:57;8.30;;;6.10;;
3704;SDS011;1868;48.918;9.438;2023-09-12T04:16:32;8.17;;;6.70;;
3704;SDS011;1868;48.918;9.438;2023-09-12T04:19:01;12.80;;;7.70;;
3704;SDS011;1868;48.918;9.438;2023-09-12T04:21:32;12.50;;;7.33;;
3704;SDS011;1868;48.918;9.438;2023-09-12T04:24:01;8.43;;;6.00;;
3704;SDS011;1868;48.918;9.438;2023-09-12T04:26:31;39.57;;;26.13;;
3704;SDS011;1868;48.918;9.438;2023-09-12T04:29:01;16.90;;;10.20;;
3704;SDS011;1868;48.918;9.438;2023-09-12T04:31:29;8.90;;;7.57;;
3704;SDS011;1868;48.918;9.438;2023-09-12T04:34:02;10.30;;;7.60;;
3704;SDS011;1868;48.918;9.438;2023-09-12T04:36:30;8.17;;;6.40;;
3704;SDS011;1868;48.918;9.438;2023-09-12T04:38:59;18.53;;;6.70;;
3704;SDS011;1868;48.918;9.438;2023-09-12T04:41:28;7.90;;;5.63;;
3704;SDS011;1868;48.918;9.438;2023-09-12T04:43:59;8.07;;;6.37;;
3704;SDS011;1868;48.918;9.438;2023-09-12T04:46:31;9.43;;;6.30;;
3704;SDS011;1868;48.918;9.438;2023-09-12T04:49:01;17.83;;;8.10;;
3704;SDS011;1868;48.918;9.438;2023-09-12T04:51:30;11.90;;;6.83;;
3704;SDS011;1868;48.918;9.438;2023-09-12T04:54:01;12.97;;;5.80;;
3704;SDS011;1868;48.918;9.438;2023-09-12T04:56:33;8.33;;;5.93;;
3704;SDS011;1868;48.918;9.438;2023-09-12T04:59:03;22.07;;;7.20;;
3704;SDS011;1868;48.918;9.438;2023-09-12T05:01:34;14.50;;;7.30;;
3704;SDS011;1868;48.918;9.438;2023-09-12T05:04:03;11.90;;;6.60;;
3704;SDS011;1868;48.918;9.438;2023-09-12T05:06:32;10.90;;;6.30;;
3704;SDS011;1868;48.918;9.438;2023-09-12T05:09:02;12.63;;;6.37;;
3704;SDS011;1868;48.918;9.438;2023-09-12T05:11:33;9.90;;;7.13;;
3704;SDS011;1868;48.918;9.438;2023-09-12T05:14:02;13.83;;;7.30;;
3704;SDS011;1868;48.918;9.438;2023-09-12T05:16:31;11.07;;;7.83;;
3704;SDS011;1868;48.918;9.438;2023-09-12T05:19:02;14.97;;;6.90;;
3704;SDS011;1868;48.918;9.438;2023-09-12T05:21:33;11.67;;;5.87;;
3704;SDS011;1868;48.918;9.438;2023-09-12T05:24:02;12.27;;;6.80;;
3704;SDS011;1868;48.918;9.438;2023-09-12T05:26:31;11.40;;;6.80;;
3704;SDS011;1868;48.918;9.438;2023-09-12T05:29:00;9.13;;;6.53;;
3704;SDS011;1868;48.918;9.438;2023-09-12T05:31:29;11.33;;;7.10;;
3704;SDS011;1868;48.918;9.438;2023-09-12T05:33:59;14.23;;;8.17;;
3704;SDS011;1868;48.918;9.438;2023-09-12T05:36:32;14.20;;;8.17;;
3704;SDS011;1868;48.918;9.438;2023-09-12T05:39:01;12.67;;;7.40;;
3704;SDS011;1868;48.918;9.438;2023-09-12T05:41:33;9.57;;;6.40;;
3704;SDS011;1868;48.918;9.438;2023-09-12T05:44:01;11.53;;;7.27;;
3704;SDS011;1868;48.918;9.438;2023-09-12T05:46:30;18.23;;;8.50;;
3704;SDS011;1868;48.918;9.438;2023-09-12T05:48:59;18.00;;;8.17;;
3704;SDS011;1868;48.918;9.438;2023-09-12T05:51:30;13.60;;;6.90;;
3704;SDS011;1868;48.918;9.438;2023-09-12T05:53:59;17.80;;;7.47;;
3704;SDS011;1868;48.918;9.438;2023-09-12T05:56:34;14.87;;;8.23;;
3704;SDS011;1868;48.918;9.438;2023-09-12T05:59:05;11.67;;;7.00;;
3704;SDS011;1868;48.918;9.438;2023-09-12T06:01:35;19.67;;;7.00;;
3704;SDS011;1868;48.918;9.438;2023-09-12T06:04:09;19.43;;;7.57;;
3704;SDS011;1868;48.918;9.438;2023-09-12T06:06:38;14.53;;;7.37;;
3704;SDS011;1868;48.918;9.438;2023-09-12T06:09:08;17.90;;;7.77;;
3704;SDS011;1868;48.918;9.438;2023-09-12T06:11:36;12.20;;;7.03;;
3704;SDS011;1868;48.918;9.438;2023-09-12T06:14:05;19.43;;;7.43;;
3704;SDS011;1868;48.918;9.438;2023-09-12T06:16:34;14.43;;;7.20;;
3704;SDS011;1868;48.918;9.438;2023-09-12T06:19:06;12.50;;;7.97;;
3704;SDS011;1868;48.918;9.438;2023-09-12T06:21:40;11.80;;;6.80;;
3704;SDS011;1868;48.918;9.438;2023-09-12T06:24:14;16.37;;;8.33;;
3704;SDS011;1868;48.918;9.438;2023-09-12T06:26:44;13.90;;;7.87;;
3704;SDS011;1868;48.918;9.438;2023-09-12T06:33:06;9.70;;;6.47;;
3704;SDS011;1868;48.918;9.438;2023-09-12T06:39:50;10.73;;;5.70;;
3704;SDS011;1868;48.918;9.438;2023-09-12T06:42:19;7.93;;;5.53;;
3704;SDS011;1868;48.918;9.438;2023-09-12T06:44:48;15.10;;;6.00;;
3704;SDS011;1868;48.918;9.438;2023-09-12T06:47:18;9.70;;;7.00;;
3704;SDS011;1868;48.918;9.438;2023-09-12T06:49:47;10.73;;;5.57;;
3704;SDS011;1868;48.918;9.438;2023-09-12T06:52:21;12.93;;;5.30;;
3704;SDS011;1868;48.918;9.438;2023-09-12T06:54:52;10.33;;;6.00;;
3704;SDS011;1868;48.918;9.438;2023-09-12T06:57:23;7.70;;;5.43;;
3704;SDS011;1868;48.918;9.438;2023-09-12T06:59:51;11.83;;;5.57;;
3704;SDS011;1868;48.918;9.438;2023-09-12T07:02:20;7.60;;;4.87;;
3704;SDS011;1868;48.918;9.438;2023-09-12T07:04:49;10.33;;;5.90;;
3704;SDS011;1868;48.918;9.438;2023-09-12T07:07:17;9.00;;;5.03;;
3704;SDS011;1868;48.918;9.438;2023-09-12T07:09:46;10.53;;;5.30;;
3704;SDS011;1868;48.918;9.438;2023-09-12T07:12:18;7.00;;;5.43;;
3704;SDS011;1868;48.918;9.438;2023-09-12T07:14:46;8.50;;;5.97;;
3704;SDS011;1868;48.918;9.438;2023-09-12T07:17:18;13.57;;;6.60;;
3704;SDS011;1868;48.918;9.438;2023-09-12T07:19:47;9.33;;;5.77;;
3704;SDS011;1868;48.918;9.438;2023-09-12T07:22:17;9.73;;;6.00;;
3704;SDS011;1868;48.918;9.438;2023-09-12T07:24:46;8.20;;;5.57;;
3704;SDS011;1868;48.918;9.438;2023-09-12T07:27:15;10.23;;;5.10;;
3704;SDS011;1868;48.918;9.438;2023-09-12T07:29:46;11.90;;;5.63;;
3704;SDS011;1868;48.918;9.438;2023-09-12T07:32:15;11.70;;;6.00;;
3704;SDS011;1868;48.918;9.438;2023-09-12T07:34:46;6.03;;;4.67;;
3704;SDS011;1868;48.918;9.438;2023-09-12T07:37:17;8.57;;;4.70;;
3704;SDS011;1868;48.918;9.438;2023-09-12T07:39:45;7.63;;;5.33;;
3704;SDS011;1868;48.918;9.438;2023-09-12T07:42:18;11.80;;;4.17;;
3704;SDS011;1868;48.918;9.438;2023-09-12T07:44:50;5.90;;;4.83;;
3704;SDS011;1868;48.918;9.438;2023-09-12T07:47:20;9.27;;;4.27;;
3704;SDS011;1868;48.918;9.438;2023-09-12T07:49:52;6.40;;;5.00;;
3704;SDS011;1868;48.918;9.438;2023-09-12T07:52:22;8.80;;;4.80;;
3704;SDS011;1868;48.918;9.438;2023-09-12T07:54:51;6.23;;;4.40;;
3704;SDS011;1868;48.918;9.438;2023-09-12T07:57:26;9.37;;;4.40;;
3704;SDS011;1868;48.918;9.438;2023-09-12T07:59:56;9.13;;;4.97;;
3704;SDS011;1868;48.918;9.438;2023-09-12T08:02:26;7.43;;;4.50;;
3704;SDS011;1868;48.918;9.438;2023-09-12T08:04:55;8.07;;;5.00;;
3704;SDS011;1868;48.918;9.438;2023-09-12T08:07:24;9.03;;;4.97;;
3704;SDS011;1868;48.918;9.438;2023-09-12T08:09:56;5.57;;;4.57;;
3704;SDS011;1868;48.918;9.438;2023-09-12T08:12:27;5.23;;;3.90;;
3704;SDS011;1868;48.918;9.438;2023-09-12T08:14:57;4.70;;;3.53;;
3704;SDS011;1868;48.918;9.438;2023-09-12T08:17:26;6.97;;;4.40;;
3704;SDS011;1868;48.918;9.438;2023-09-12T08:19:55;6.97;;;4.20;;
3704;SDS011;1868;48.918;9.438;2023-09-12T08:22:26;8.13;;;4.30;;
3704;SDS011;1868;48.918;9.438;2023-09-12T08:24:55;4.27;;;3.87;;
3704;SDS011;1868;48.918;9.438;2023-09-12T08:27:24;5.00;;;3.50;;
3704;SDS011;1868;48.918;9.438;2023-09-12T08:29:55;7.30;;;4.13;;
3704;SDS011;1868;48.918;9.438;2023-09-12T08:32:25;4.33;;;3.90;;
3704;SDS011;1868;48.918;9.438;2023-09-12T08:34:53;7.97;;;4.60;;
3704;SDS011;1868;48.918;9.438;2023-09-12T08:37:22;4.80;;;3.43;;
3704;SDS011;1868;48.918;9.438;2023-09-12T08:39:54;8.13;;;4.20;;
3704;SDS011;1868;48.918;9.438;2023-09-12T08:42:27;6.00;;;4.10;;
3704;SDS011;1868;48.918;9.438;2023-09-12T08:45:00;6.40;;;4.23;;
3704;SDS011;1868;48.918;9.438;2023-09-12T08:47:31;6.43;;;4.33;;
3704;SDS011;1868;48.918;9.438;2023-09-12T08:50:03;5.10;;;4.50;;
3704;SDS011;1868;48.918;9.438;2023-09-12T08:52:34;6.00;;;4.30;;
3704;SDS011;1868;48.918;9.438;2023-09-12T08:55:08;5.83;;;4.63;;
3704;SDS011;1868;48.918;9.438;2023-09-12T08:57:39;10.20;;;5.40;;
3704;SDS011;1868;48.918;9.438;2023-09-12T09:00:12;10.77;;;5.00;;
3704;SDS011;1868;48.918;9.438;2023-09-12T09:02:42;4.33;;;4.00;;
3704;SDS011;1868;48.918;9.438;2023-09-12T09:05:11;6.00;;;4.10;;
3704;SDS011;1868;48.918;9.438;2023-09-12T09:07:41;6.80;;;4.37;;
3704;SDS011;1868;48.918;9.438;2023-09-12T09:10:13;6.40;;;4.87;;
3704;SDS011;1868;48.918;9.438;2023-09-12T09:12:51;5.60;;;4.37;;
3704;SDS011;1868;48.918;9.438;2023-09-12T09:15:22;7.17;;;4.83;;
3704;SDS011;1868;48.918;9.438;2023-09-12T09:17:54;7.57;;;5.20;;
3704;SDS011;1868;48.918;9.438;2023-09-12T09:20:28;8.20;;;5.03;;
3704;SDS011;1868;48.918;9.438;2023-09-12T09:23:00;5.50;;;5.00;;
3704;SDS011;1868;48.918;9.438;2023-09-12T09:25:36;5.20;;;4.70;;
3704;SDS011;1868;48.918;9.438;2023-09-12T09:28:17;11.03;;;4.63;;
3704;SDS011;1868;48.918;9.438;2023-09-12T09:30:48;5.93;;;4.83;;
3704;SDS011;1868;48.918;9.438;2023-09-12T09:33:21;5.97;;;5.17;;
3704;SDS011;1868;48.918;9.438;2023-09-12T09:35:51;6.87;;;4.23;;
3704;SDS011;1868;48.918;9.438;2023-09-12T09:38:31;5.10;;;3.97;;
3704;SDS011;1868;48.918;9.438;2023-09-12T09:41:04;6.57;;;3.77;;
3704;SDS011;1868;48.918;9.438;2023-09-12T09:43:35;6.90;;;4.30;;
3704;SDS011;1868;48.918;9.438;2023-09-12T09:46:07;4.87;;;4.20;;
3704;SDS011;1868;48.918;9.438;2023-09-12T09:48:47;5.20;;;4.07;;
3704;SDS011;1868;48.918;9.438;2023-09-12T09:51:26;6.33;;;3.97;;
3704;SDS011;1868;48.918;9.438;2023-09-12T09:53:55;4.80;;;3.80;;
3704;SDS011;1868;48.918;9.438;2023-09-12T09:56:24;7.60;;;4.40;;
3704;SDS011;1868;48.918;9.438;2023-09-12T09:58:55;4.43;;;3.70;;
3704;SDS011;1868;48.918;9.438;2023-09-12T10:01:26;6.43;;;4.20;;
3704;SDS011;1868;48.918;9.438;2023-09-12T10:03:59;3.65;;;3.35;;
3704;SDS011;1868;48.918;9.438;2023-09-12T10:06:29;4.50;;;3.85;;
3704;SDS011;1868;48.918;9.438;2023-09-12T10:09:03;6.20;;;3.92;;
3704;SDS011;1868;48.918;9.438;2023-09-12T10:11:37;5.38;;;3.85;;
3704;SDS011;1868;48.918;9.438;2023-09-12T10:14:11;3.63;;;3.33;;
3704;SDS011;1868;48.918;9.438;2023-09-12T10:16:44;3.72;;;3.35;;
3704;SDS011;1868;48.918;9.438;2023-09-12T10:19:16;4.25;;;3.40;;
3704;SDS011;1868;48.918;9.438;2023-09-12T10:21:53;3.28;;;2.97;;
3704;SDS011;1868;48.918;9.438;2023-09-12T10:24:30;3.85;;;3.33;;
3704;SDS011;1868;48.918;9.438;2023-09-12T10:27:03;4.25;;;3.83;;
3704;SDS011;1868;48.918;9.438;2023-09-12T10:29:40;4.82;;;3.40;;
3704;SDS011;1868;48.918;9.438;2023-09-12T10:32:14;4.13;;;3.53;;
3704;SDS011;1868;48.918;9.438;2023-09-12T10:34:46;4.05;;;3.63;;
3704;SDS011;1868;48.918;9.438;2023-09-12T10:37:16;3.88;;;3.13;;
3704;SDS011;1868;48.918;9.438;2023-09-12T10:39:50;3.17;;;2.80;;
3704;SDS011;1868;48.918;9.438;2023-09-12T10:42:23;3.88;;;3.42;;
3704;SDS011;1868;48.918;9.438;2023-09-12T10:44:57;4.47;;;3.17;;
3704;SDS011;1868;48.918;9.438;2023-09-12T10:47:30;3.05;;;2.85;;
3704;SDS011;1868;48.918;9.438;2023-09-12T10:50:00;5.70;;;2.63;;
3704;SDS011;1868;48.918;9.438;2023-09-12T10:52:30;4.88;;;3.05;;
3704;SDS011;1868;48.918;9.438;2023-09-12T10:55:04;3.65;;;2.72;;
3704;SDS011;1868;48.918;9.438;2023-09-12T10:57:34;5.57;;;3.10;;
3704;SDS011;1868;48.918;9.438;2023-09-12T11:00:12;5.00;;;2.92;;
3704;SDS011;1868;48.918;9.438;2023-09-12T11:02:42;3.00;;;2.80;;
3704;SDS011;1868;48.918;9.438;2023-09-12T11:08:06;4.28;;;3.42;;
3704;SDS011;1868;48.918;9.438;2023-09-12T11:10:36;3.75;;;3.13;;
3704;SDS011;1868;48.918;9.438;2023-09-12T11:13:05;5.40;;;2.80;;
3704;SDS011;1868;48.918;9.438;2023-09-12T11:15:35;3.70;;;2.90;;
3704;SDS011;1868;48.918;9.438;2023-09-12T11:18:08;4.57;;;3.00;;
3704;SDS011;1868;48.918;9.438;2023-09-12T11:20:50;6.25;;;3.53;;
3704;SDS011;1868;48.918;9.438;2023-09-12T11:23:21;3.22;;;2.90;;
3704;SDS011;1868;48.918;9.438;2023-09-12T11:26:02;4.45;;;3.00;;
3704;SDS011;1868;48.918;9.438;2023-09-12T11:28:40;3.05;;;2.75;;
3704;SDS011;1868;48.918;9.438;2023-09-12T11:31:12;3.35;;;3.15;;
3704;SDS011;1868;48.918;9.438;2023-09-12T11:33:55;4.60;;;2.63;;
3704;SDS011;1868;48.918;9.438;2023-09-12T11:36:30;5.35;;;3.35;;
3704;SDS011;1868;48.918;9.438;2023-09-12T11:39:01;2.83;;;2.63;;
3704;SDS011;1868;48.918;9.438;2023-09-12T11:41:40;4.47;;;4.07;;
3704;SDS011;1868;48.918;9.438;2023-09-12T11:44:08;3.70;;;2.95;;
3704;SDS011;1868;48.918;9.438;2023-09-12T11:46:38;5.65;;;3.97;;
3704;SDS011;1868;48.918;9.438;2023-09-12T11:49:09;4.05;;;3.20;;
3704;SDS011;1868;48.918;9.438;2023-09-12T11:51:45;10.27;;;3.83;;
3704;SDS011;1868;48.918;9.438;2023-09-12T11:54:20;5.53;;;3.28;;
3704;SDS011;1868;48.918;9.438;2023-09-12T11:56:53;4.68;;;3.20;;
3704;SDS011;1868;48.918;9.438;2023-09-12T11:59:23;4.25;;;2.97;;
3704;SDS011;1868;48.918;9.438;2023-09-12T12:01:53;7.75;;;2.90;;
3704;SDS011;1868;48.918;9.438;2023-09-12T12:04:23;5.70;;;3.30;;
3704;SDS011;1868;48.918;9.438;2023-09-12T12:06:53;8.20;;;3.55;;
3704;SDS011;1868;48.918;9.438;2023-09-12T12:09:23;2.47;;;2.42;;
3704;SDS011;1868;48.918;9.438;2023-09-12T12:11:52;3.22;;;2.92;;
3704;SDS011;1868;48.918;9.438;2023-09-12T12:14:20;4.18;;;2.60;;
3704;SDS011;1868;48.918;9.438;2023-09-12T12:16:49;14.27;;;3.05;;
3704;SDS011;1868;48.918;9.438;2023-09-12T12:19:19;2.90;;;2.70;;
3704;SDS011;1868;48.918;9.438;2023-09-12T12:21:48;5.60;;;2.67;;
3704;SDS011;1868;48.918;9.438;2023-09-12T12:24:16;3.05;;;2.47;;
3704;SDS011;1868;48.918;9.438;2023-09-12T12:26:45;4.93;;;3.47;;
3704;SDS011;1868;48.918;9.438;2023-09-12T12:29:14;4.68;;;2.85;;
3704;SDS011;1868;48.918;9.438;2023-09-12T12:31:43;4.43;;;3.13;;
3704;SDS011;1868;48.918;9.438;2023-09-12T12:34:12;6.07;;;3.05;;
3704;SDS011;1868;48.918;9.438;2023-09-12T12:37:03;4.10;;;2.33;;
3704;SDS011;1868;48.918;9.438;2023-09-12T12:39:32;4.63;;;3.38;;
3704;SDS011;1868;48.918;9.438;2023-09-12T12:42:01;2.92;;;2.72;;
3704;SDS011;1868;48.918;9.438;2023-09-12T12:44:33;3.00;;;2.80;;
3704;SDS011;1868;48.918;9.438;2023-09-12T12:47:08;3.17;;;2.97;;
3704;SDS011;1868;48.918;9.438;2023-09-12T12:49:38;2.67;;;2.47;;
3704;SDS011;1868;48.918;9.438;2023-09-12T12:52:10;7.00;;;2.83;;
3704;SDS011;1868;48.918;9.438;2023-09-12T12:54:41;3.13;;;2.83;;
3704;SDS011;1868;48.918;9.438;2023-09-12T12:57:10;2.85;;;2.17;;
3704;SDS011;1868;48.918;9.438;2023-09-12T12:59:44;4.93;;;2.85;;
3704;SDS011;1868;48.918;9.438;2023-09-12T13:02:13;2.65;;;2.45;;
3704;SDS011;1868;48.918;9.438;2023-09-12T13:04:42;4.38;;;3.00;;
3704;SDS011;1868;48.918;9.438;2023-09-12T13:07:13;5.38;;;3.00;;
3704;SDS011;1868;48.918;9.438;2023-09-12T13:09:41;3.08;;;2.88;;
3704;SDS011;1868;48.918;9.438;2023-09-12T13:12:10;4.68;;;2.75;;
3704;SDS011;1868;48.918;9.438;2023-09-12T13:14:40;2.92;;;2.70;;
3704;SDS011;1868;48.918;9.438;2023-09-12T13:17:09;3.20;;;2.72;;
3704;SDS011;1868;48.918;9.438;2023-09-12T13:19:39;3.08;;;2.70;;
3704;SDS011;1868;48.918;9.438;2023-09-12T13:22:10;3.80;;;2.75;;
3704;SDS011;1868;48.918;9.438;2023-09-12T13:24:40;2.58;;;2.38;;
3704;SDS011;1868;48.918;9.438;2023-09-12T13:27:08;2.90;;;2.70;;
3704;SDS011;1868;48.918;9.438;2023-09-12T13:29:37;3.00;;;2.60;;
3704;SDS011;1868;48.918;9.438;2023-09-12T13:32:06;2.80;;;2.58;;
3704;SDS011;1868;48.918;9.438;2023-09-12T13:34:36;3.35;;;3.05;;
3704;SDS011;1868;48.918;9.438;2023-09-12T13:37:06;3.35;;;2.60;;
3704;SDS011;1868;48.918;9.438;2023-09-12T13:39:40;7.25;;;3.17;;
3704;SDS011;1868;48.918;9.438;2023-09-12T13:42:14;2.90;;;2.70;;
3704;SDS011;1868;48.918;9.438;2023-09-12T13:44:46;2.90;;;2.78;;
3704;SDS011;1868;48.918;9.438;2023-09-12T13:47:15;3.92;;;3.20;;
3704;SDS011;1868;48.918;9.438;2023-09-12T13:49:49;3.30;;;2.88;;
3704;SDS011;1868;48.918;9.438;2023-09-12T13:52:19;2.85;;;2.65;;
3704;SDS011;1868;48.918;9.438;2023-09-12T13:54:49;3.58;;;3.17;;
3704;SDS011;1868;48.918;9.438;2023-09-12T13:57:18;4.80;;;3.08;;
3704;SDS011;1868;48.918;9.438;2023-09-12T13:59:47;3.10;;;2.88;;
3704;SDS011;1868;48.918;9.438;2023-09-12T14:02:15;5.35;;;3.47;;
3704;SDS011;1868;48.918;9.438;2023-09-12T14:04:45;3.10;;;3.00;;
3704;SDS011;1868;48.918;9.438;2023-09-12T14:07:24;7.70;;;4.00;;
3704;SDS011;1868;48.918;9.438;2023-09-12T14:09:56;4.10;;;3.67;;
3704;SDS011;1868;48.918;9.438;2023-09-12T14:12:24;4.83;;;3.83;;
3704;SDS011;1868;48.918;9.438;2023-09-12T14:14:54;3.33;;;3.03;;
3704;SDS011;1868;48.918;9.438;2023-09-12T14:17:34;7.57;;;3.67;;
3704;SDS011;1868;48.918;9.438;2023-09-12T14:20:15;5.57;;;3.90;;
3704;SDS011;1868;48.918;9.438;2023-09-12T14:22:44;3.37;;;2.57;;
3704;SDS011;1868;48.918;9.438;2023-09-12T14:25:14;3.80;;;3.53;;
3704;SDS011;1868;48.918;9.438;2023-09-12T14:27:44;5.33;;;3.20;;
3704;SDS011;1868;48.918;9.438;2023-09-12T14:30:13;5.10;;;3.50;;
3704;SDS011;1868;48.918;9.438;2023-09-12T14:32:42;4.27;;;3.20;;
3704;SDS011;1868;48.918;9.438;2023-09-12T14:35:11;3.90;;;3.60;;
3704;SDS011;1868;48.918;9.438;2023-09-12T14:37:39;4.03;;;3.50;;
3704;SDS011;1868;48.918;9.438;2023-09-12T14:40:09;5.07;;;3.50;;
3704;SDS011;1868;48.918;9.438;2023-09-12T14:42:44;3.70;;;3.40;;
3704;SDS011;1868;48.918;9.438;2023-09-12T14:45:13;4.90;;;3.73;;
3704;SDS011;1868;48.918;9.438;2023-09-12T14:47:42;4.20;;;3.90;;
3704;SDS011;1868;48.918;9.438;2023-09-12T14:50:11;6.23;;;4.20;;
3704;SDS011;1868;48.918;9.438;2023-09-12T14:52:40;4.47;;;4.10;;
3704;SDS011;1868;48.918;9.438;2023-09-12T14:55:10;4.37;;;3.97;;
3704;SDS011;1868;48.918;9.438;2023-09-12T14:57:41;7.80;;;4.43;;
3704;SDS011;1868;48.918;9.438;2023-09-12T15:00:12;9.00;;;4.13;;
3704;SDS011;1868;48.918;9.438;2023-09-12T15:02:41;4.40;;;4.00;;
3704;SDS011;1868;48.918;9.438;2023-09-12T15:05:10;4.50;;;3.83;;
3704;SDS011;1868;48.918;9.438;2023-09-12T15:07:38;5.13;;;4.30;;
3704;SDS011;1868;48.918;9.438;2023-09-12T15:10:09;6.20;;;4.20;;
3704;SDS011;1868;48.918;9.438;2023-09-12T15:12:38;5.23;;;4.40;;
3704;SDS011;1868;48.918;9.438;2023-09-12T15:15:09;5.97;;;4.60;;
3704;SDS011;1868;48.918;9.438;2023-09-12T15:17:39;5.30;;;4.40;;
3704;SDS011;1868;48.918;9.438;2023-09-12T15:20:08;5.60;;;4.80;;
3704;SDS011;1868;48.918;9.438;2023-09-12T15:22:39;6.63;;;4.80;;
3704;SDS011;1868;48.918;9.438;2023-09-12T15:25:10;5.43;;;4.00;;
3704;SDS011;1868;48.918;9.438;2023-09-12T15:27:40;9.97;;;5.17;;
3704;SDS011;1868;48.918;9.438;2023-09-12T15:30:12;6.60;;;5.10;;
3704;SDS011;1868;48.918;9.438;2023-09-12T15:32:41;6.07;;;4.80;;
3704;SDS011;1868;48.918;9.438;2023-09-12T15:35:10;7.03;;;5.63;;
3704;SDS011;1868;48.918;9.438;2023-09-12T15:37:40;5.93;;;5.33;;
3704;SDS011;1868;48.918;9.438;2023-09-12T15:40:09;5.47;;;4.90;;
3704;SDS011;1868;48.918;9.438;2023-09-12T15:42:39;9.70;;;5.73;;
3704;SDS011;1868;48.918;9.438;2023-09-12T15:45:08;7.50;;;5.73;;
3704;SDS011;1868;48.918;9.438;2023-09-12T15:47:38;10.30;;;5.50;;